createdAt,value
2018-07-03T00:00:17.084Z,21.81
2018-07-03T00:02:45.693Z,21.75
2018-07-03T00:05:14.346Z,21.62
2018-07-03T00:07:43.295Z,21.58
2018-07-03T00:10:12.688Z,21.51
2018-07-03T00:12:41.365Z,21.41
2018-07-03T00:15:10.025Z,21.38
2018-07-03T00:17:38.813Z,21.34
2018-07-03T00:20:09.188Z,21.23
2018-07-03T00:22:37.821Z,21.27
2018-07-03T00:25:06.403Z,21.25
2018-07-03T00:27:35.207Z,21.23
2018-07-03T00:30:04.060Z,21.27
2018-07-03T00:32:32.683Z,21.08
2018-07-03T00:35:01.400Z,21.10
2018-07-03T00:37:30.049Z,21.07
2018-07-03T00:39:58.784Z,21.05
2018-07-03T00:42:27.808Z,20.98
2018-07-03T00:44:56.389Z,20.93
2018-07-03T00:47:24.988Z,20.91
2018-07-03T00:49:53.842Z,20.89
2018-07-03T00:52:22.448Z,20.81
2018-07-03T00:54:51.056Z,20.87
2018-07-03T00:57:19.755Z,20.81
2018-07-03T00:59:59.381Z,20.65
2018-07-03T01:02:28.012Z,20.74
2018-07-03T01:04:56.700Z,20.68
2018-07-03T01:07:25.347Z,20.58
2018-07-03T01:09:54.196Z,20.54
2018-07-03T01:12:22.928Z,20.47
2018-07-03T01:14:51.752Z,20.51
2018-07-03T01:17:20.731Z,20.48
2018-07-03T01:19:49.407Z,20.39
2018-07-03T01:22:18.507Z,20.37
2018-07-03T01:24:47.247Z,20.37
2018-07-03T01:27:16.093Z,20.30
2018-07-03T01:29:44.723Z,20.26
2018-07-03T01:32:13.675Z,20.25
2018-07-03T01:34:42.571Z,20.12
2018-07-03T01:37:11.188Z,20.17
2018-07-03T01:39:40.376Z,20.15
2018-07-03T01:42:09.079Z,20.03
2018-07-03T01:44:37.785Z,20.06
2018-07-03T01:47:07.127Z,20.01
2018-07-03T01:49:35.881Z,20.01
2018-07-03T01:52:04.544Z,19.92
2018-07-03T01:54:33.151Z,19.93
2018-07-03T01:57:01.713Z,19.92
2018-07-03T01:59:30.616Z,19.90
2018-07-03T02:01:59.279Z,19.86
2018-07-03T02:04:27.873Z,19.82
2018-07-03T02:06:56.671Z,19.80
2018-07-03T02:09:25.293Z,19.77
2018-07-03T02:11:53.980Z,19.68
2018-07-03T02:14:22.620Z,19.69
2018-07-03T02:16:51.349Z,19.63
2018-07-03T02:19:20.037Z,19.65
2018-07-03T02:21:48.653Z,19.62
2018-07-03T02:24:17.479Z,19.56
2018-07-03T02:26:46.092Z,19.52
2018-07-03T02:29:15.049Z,19.53
2018-07-03T02:31:43.749Z,19.54
2018-07-03T02:34:12.280Z,19.31
2018-07-03T02:36:41.861Z,19.41
2018-07-03T02:39:11.985Z,19.35
2018-07-03T02:41:41.196Z,19.29
2018-07-03T02:44:09.821Z,19.22
2018-07-03T02:46:38.555Z,19.18
2018-07-03T02:49:07.427Z,19.15
2018-07-03T02:51:36.080Z,19.18
2018-07-03T02:54:05.008Z,19.20
2018-07-03T02:56:33.645Z,19.14
2018-07-03T02:59:02.228Z,19.17
2018-07-03T03:01:30.978Z,19.08
2018-07-03T03:03:59.920Z,19.07
2018-07-03T03:06:28.587Z,19.02
2018-07-03T03:08:57.628Z,19.00
2018-07-03T03:11:26.367Z,18.85
2018-07-03T03:13:56.449Z,18.94
2018-07-03T03:16:25.261Z,18.92
2018-07-03T03:18:53.961Z,18.71
2018-07-03T03:21:22.608Z,18.70
2018-07-03T03:23:51.693Z,18.67
2018-07-03T03:26:20.504Z,18.63
2018-07-03T03:28:49.225Z,18.55
2018-07-03T03:31:18.055Z,18.42
2018-07-03T03:33:46.761Z,18.47
2018-07-03T03:36:15.392Z,18.39
2018-07-03T03:38:44.339Z,18.47
2018-07-03T03:41:12.948Z,18.45
2018-07-03T03:43:41.556Z,18.48
2018-07-03T03:46:10.220Z,18.46
2018-07-03T03:48:38.817Z,18.44
2018-07-03T03:51:07.650Z,18.51
2018-07-03T03:53:36.780Z,18.42
2018-07-03T03:56:05.831Z,18.48
2018-07-03T03:58:34.611Z,18.58
2018-07-03T04:01:03.471Z,18.45
2018-07-03T04:03:32.167Z,18.57
2018-07-03T04:06:00.973Z,18.50
2018-07-03T04:08:29.693Z,18.61
2018-07-03T04:10:58.320Z,18.70
2018-07-03T04:13:26.903Z,18.72
2018-07-03T04:15:55.936Z,18.67
2018-07-03T04:18:39.988Z,18.72
2018-07-03T04:21:09.481Z,18.90
2018-07-03T04:23:38.876Z,18.98
2018-07-03T04:26:07.764Z,18.87
2018-07-03T04:28:36.677Z,18.93
2018-07-03T04:31:05.477Z,18.91
2018-07-03T04:33:34.104Z,18.87
2018-07-03T04:36:02.831Z,19.05
2018-07-03T04:38:31.540Z,19.06
2018-07-03T04:41:00.159Z,19.24
2018-07-03T04:43:28.985Z,19.29
2018-07-03T04:45:57.652Z,19.26
2018-07-03T04:48:26.224Z,19.30
2018-07-03T04:50:54.947Z,19.36
2018-07-03T04:53:23.592Z,19.41
2018-07-03T04:55:52.124Z,19.40
2018-07-03T04:58:21.200Z,19.59
2018-07-03T05:00:49.715Z,19.65
2018-07-03T05:03:18.339Z,19.58
2018-07-03T05:05:47.360Z,19.75
2018-07-03T05:08:15.987Z,19.86
2018-07-03T05:10:44.583Z,19.99
2018-07-03T05:13:13.260Z,20.08
2018-07-03T05:15:42.025Z,20.06
2018-07-03T05:18:11.281Z,20.17
2018-07-03T05:20:40.220Z,20.23
2018-07-03T05:23:09.020Z,20.57
2018-07-03T05:25:37.644Z,20.76
2018-07-03T05:28:06.373Z,20.76
2018-07-03T05:30:35.047Z,20.99
2018-07-03T05:33:03.901Z,20.84
2018-07-03T05:35:32.827Z,20.99
2018-07-03T05:38:01.529Z,21.17
2018-07-03T05:40:30.256Z,21.14
2018-07-03T05:42:59.137Z,21.28
2018-07-03T05:45:27.847Z,21.30
2018-07-03T05:47:56.512Z,21.53
2018-07-03T05:50:25.467Z,21.66
2018-07-03T05:52:54.100Z,21.77
2018-07-03T05:55:22.679Z,21.88
2018-07-03T05:57:51.415Z,22.00
2018-07-03T06:00:20.109Z,22.05
2018-07-03T06:02:48.733Z,22.12
2018-07-03T06:05:17.864Z,22.01
2018-07-03T06:07:46.531Z,22.13
2018-07-03T06:10:15.116Z,21.86
2018-07-03T06:12:43.857Z,21.99
2018-07-03T06:15:12.891Z,22.10
2018-07-03T06:17:42.076Z,22.22
2018-07-03T06:20:11.239Z,22.36
2018-07-03T06:22:40.292Z,22.27
2018-07-03T06:25:08.833Z,22.21
2018-07-03T06:27:37.516Z,22.66
2018-07-03T06:30:06.175Z,22.39
2018-07-03T06:32:34.734Z,22.60
2018-07-03T06:35:03.720Z,23.08
2018-07-03T06:37:32.433Z,23.08
2018-07-03T06:40:01.424Z,23.33
2018-07-03T06:42:30.117Z,23.09
2018-07-03T06:44:58.806Z,23.28
2018-07-03T06:47:27.356Z,23.58
2018-07-03T06:49:55.952Z,24.08
2018-07-03T06:52:25.670Z,24.53
2018-07-03T06:54:56.439Z,24.64
2018-07-03T06:57:25.987Z,24.45
2018-07-03T06:59:54.672Z,24.74
2018-07-03T07:02:23.756Z,25.79
2018-07-03T07:04:52.544Z,26.40
2018-07-03T07:07:21.227Z,26.80
2018-07-03T07:09:49.896Z,27.21
2018-07-03T07:12:18.856Z,27.63
2018-07-03T07:14:47.553Z,27.58
2018-07-03T07:17:16.741Z,28.11
2018-07-03T07:19:45.433Z,28.50
2018-07-03T07:22:14.321Z,27.92
2018-07-03T07:24:43.200Z,28.19
2018-07-03T07:27:11.836Z,28.65
2018-07-03T07:29:40.886Z,28.61
2018-07-03T07:32:09.552Z,27.96
2018-07-03T07:34:38.309Z,27.64
2018-07-03T07:37:07.045Z,28.62
2018-07-03T07:39:36.205Z,28.86
2018-07-03T07:42:05.132Z,29.09
2018-07-03T07:44:33.855Z,29.40
2018-07-03T07:47:03.009Z,28.64
2018-07-03T07:49:31.658Z,29.26
2018-07-03T07:52:00.324Z,29.74
2018-07-03T07:54:28.931Z,29.76
2018-07-03T07:56:57.707Z,29.80
2018-07-03T07:59:26.313Z,30.12
2018-07-03T08:01:55.026Z,30.20
2018-07-03T08:04:23.631Z,30.95
2018-07-03T08:06:52.312Z,31.29
2018-07-03T08:09:21.069Z,31.66
2018-07-03T08:11:49.828Z,32.06
2018-07-03T08:14:18.521Z,32.00
2018-07-03T08:16:47.208Z,32.27
2018-07-03T08:19:16.086Z,32.58
2018-07-03T08:21:44.676Z,32.81
2018-07-03T08:24:13.810Z,33.07
2018-07-03T08:26:42.696Z,32.28
2018-07-03T08:29:11.335Z,32.25
2018-07-03T08:31:40.364Z,31.70
2018-07-03T08:34:09.019Z,32.63
2018-07-03T08:36:37.588Z,31.30
2018-07-03T08:39:09.327Z,32.01
2018-07-03T08:41:38.040Z,32.72
2018-07-03T08:44:06.733Z,33.04
2018-07-03T08:46:35.652Z,32.45
2018-07-03T08:49:04.827Z,33.28
2018-07-03T08:51:33.498Z,33.49
2018-07-03T08:54:02.232Z,33.89
2018-07-03T08:56:30.871Z,34.13
2018-07-03T08:58:59.672Z,34.75
2018-07-03T09:01:28.589Z,34.81
2018-07-03T09:03:57.236Z,35.48
2018-07-03T09:06:25.943Z,34.71
2018-07-03T09:08:54.844Z,35.73
2018-07-03T09:11:23.603Z,36.28
2018-07-03T09:13:53.688Z,37.04
2018-07-03T09:16:23.479Z,37.20
2018-07-03T09:18:52.153Z,37.83
2018-07-03T09:21:22.124Z,37.39
2018-07-03T09:23:50.925Z,36.36
2018-07-03T09:26:19.772Z,35.83
2018-07-03T09:28:48.809Z,35.97
2018-07-03T09:31:17.656Z,36.82
2018-07-03T09:33:46.793Z,37.23
2018-07-03T09:36:15.429Z,36.84
2018-07-03T09:38:44.205Z,37.29
2018-07-03T09:41:13.132Z,37.47
2018-07-03T09:43:41.820Z,38.44
2018-07-03T09:46:10.877Z,39.39
2018-07-03T09:48:40.764Z,40.17
2018-07-03T09:51:09.375Z,39.89
2018-07-03T09:53:38.361Z,38.76
2018-07-03T09:56:07.574Z,40.25
2018-07-03T09:58:36.372Z,40.16
2018-07-03T10:01:11.101Z,40.64
2018-07-03T10:03:39.792Z,40.58
2018-07-03T10:06:08.408Z,41.37
2018-07-03T10:08:37.235Z,42.25
2018-07-03T10:11:06.044Z,42.16
2018-07-03T10:13:34.577Z,41.59
2018-07-03T10:16:04.500Z,39.08
2018-07-03T10:18:33.482Z,39.96
2018-07-03T10:21:02.801Z,39.38
2018-07-03T10:23:31.612Z,39.28
2018-07-03T10:26:00.676Z,41.02
2018-07-03T10:28:29.331Z,41.78
2018-07-03T10:30:58.912Z,42.67
2018-07-03T10:33:27.536Z,41.39
2018-07-03T10:35:56.275Z,41.37
2018-07-03T10:38:25.149Z,41.34
2018-07-03T10:40:54.455Z,41.34
2018-07-03T10:43:23.219Z,42.16
2018-07-03T10:45:52.124Z,41.94
2018-07-03T10:48:20.676Z,41.65
2018-07-03T10:50:49.415Z,41.44
2018-07-03T10:53:18.042Z,40.38
2018-07-03T10:55:51.177Z,41.70
2018-07-03T10:58:20.076Z,42.26
2018-07-03T11:00:48.709Z,42.89
2018-07-03T11:03:17.530Z,44.10
2018-07-03T11:05:46.141Z,44.75
2018-07-03T11:08:14.881Z,43.77
2018-07-03T11:10:43.444Z,44.69
2018-07-03T11:13:12.491Z,43.84
2018-07-03T11:15:41.208Z,42.68
2018-07-03T11:18:09.927Z,41.97
2018-07-03T11:20:38.639Z,41.36
2018-07-03T11:23:07.180Z,42.32
2018-07-03T11:25:35.895Z,43.26
2018-07-03T11:28:04.519Z,42.67
2018-07-03T11:30:33.067Z,41.29
2018-07-03T11:33:01.764Z,41.61
2018-07-03T11:35:30.498Z,40.45
2018-07-03T11:37:59.199Z,39.39
2018-07-03T11:40:27.810Z,39.58
2018-07-03T11:42:56.569Z,39.00
2018-07-03T11:45:25.152Z,39.85
2018-07-03T11:47:53.736Z,41.33
2018-07-03T11:50:22.410Z,42.80
2018-07-03T11:52:51.108Z,43.84
2018-07-03T11:55:19.841Z,43.77
2018-07-03T11:57:48.443Z,43.80
2018-07-03T12:00:17.567Z,42.13
2018-07-03T12:02:46.331Z,42.96
2018-07-03T12:05:15.299Z,43.53
2018-07-03T12:07:43.942Z,42.70
2018-07-03T12:10:12.720Z,41.34
2018-07-03T12:12:43.592Z,41.08
2018-07-03T12:15:12.144Z,40.81
2018-07-03T12:17:40.840Z,41.66
2018-07-03T12:20:10.395Z,41.00
2018-07-03T12:22:39.009Z,39.76
2018-07-03T12:25:07.722Z,40.47
2018-07-03T12:27:36.649Z,40.62
2018-07-03T12:30:08.149Z,40.47
2018-07-03T12:32:36.765Z,39.74
2018-07-03T12:35:05.658Z,38.68
2018-07-03T12:37:34.232Z,38.00
2018-07-03T12:40:02.963Z,37.84
2018-07-03T12:42:31.583Z,37.10
2018-07-03T12:45:00.631Z,37.07
2018-07-03T12:47:29.860Z,36.63
2018-07-03T12:49:58.485Z,36.05
2018-07-03T12:52:27.285Z,35.29
2018-07-03T12:54:56.275Z,34.30
2018-07-03T12:57:25.044Z,34.53
2018-07-03T12:59:53.727Z,33.64
2018-07-03T13:02:22.679Z,34.15
2018-07-03T13:04:51.303Z,34.74
2018-07-03T13:07:19.886Z,34.96
2018-07-03T13:09:48.512Z,35.17
2018-07-03T13:12:17.152Z,34.79
2018-07-03T13:14:45.738Z,34.81
2018-07-03T13:17:14.456Z,35.14
2018-07-03T13:19:43.068Z,34.78
2018-07-03T13:22:11.668Z,34.79
2018-07-03T13:24:40.252Z,33.77
2018-07-03T13:27:08.855Z,34.52
2018-07-03T13:29:37.456Z,34.80
2018-07-03T13:32:06.472Z,34.47
2018-07-03T13:34:35.123Z,34.63
2018-07-03T13:37:03.735Z,34.70
2018-07-03T13:39:32.455Z,34.58
2018-07-03T13:42:01.029Z,35.00
2018-07-03T13:44:29.975Z,34.91
2018-07-03T13:46:58.803Z,35.30
2018-07-03T13:49:27.441Z,35.16
2018-07-03T13:51:56.119Z,35.17
2018-07-03T13:54:25.051Z,35.44
2018-07-03T13:56:53.588Z,35.56
2018-07-03T13:59:22.135Z,35.85
2018-07-03T14:01:50.826Z,35.65
2018-07-03T14:04:19.768Z,35.95
2018-07-03T14:06:48.315Z,36.42
2018-07-03T14:09:17.172Z,36.94
2018-07-03T14:11:45.764Z,37.63
2018-07-03T14:14:14.484Z,38.20
2018-07-03T14:16:43.279Z,38.98
2018-07-03T14:19:11.870Z,40.13
2018-07-03T14:21:40.620Z,39.75
2018-07-03T14:24:09.253Z,40.32
2018-07-03T14:26:37.881Z,41.22
2018-07-03T14:29:06.894Z,41.40
2018-07-03T14:31:35.485Z,41.19
2018-07-03T14:34:04.092Z,41.33
2018-07-03T14:36:32.734Z,41.35
2018-07-03T14:39:02.110Z,41.40
2018-07-03T14:41:30.650Z,41.30
2018-07-03T14:43:59.660Z,41.48
2018-07-03T14:46:28.584Z,41.82
2018-07-03T14:48:57.122Z,41.92
2018-07-03T14:51:25.810Z,41.56
2018-07-03T14:53:54.424Z,42.08
2018-07-03T14:56:23.075Z,42.49
2018-07-03T14:58:51.984Z,41.68
2018-07-03T15:01:20.708Z,41.00
2018-07-03T15:03:49.339Z,40.50
2018-07-03T15:06:18.085Z,39.40
2018-07-03T15:08:46.855Z,39.14
2018-07-03T15:11:15.490Z,38.35
2018-07-03T15:13:44.071Z,37.59
2018-07-03T15:16:14.035Z,37.18
2018-07-03T15:18:47.882Z,36.80
2018-07-03T15:21:16.634Z,36.52
2018-07-03T15:23:45.279Z,36.08
2018-07-03T15:26:13.851Z,36.09
2018-07-03T15:28:42.719Z,35.97
2018-07-03T15:31:11.796Z,35.69
2018-07-03T15:33:41.336Z,35.11
2018-07-03T15:36:10.935Z,35.14
2018-07-03T15:38:39.554Z,35.13
2018-07-03T15:41:08.672Z,35.27
2018-07-03T15:43:38.067Z,35.15
2018-07-03T15:46:06.711Z,34.98
2018-07-03T15:48:35.331Z,35.06
2018-07-03T15:51:04.983Z,34.56
2018-07-03T15:53:33.974Z,34.66
2018-07-03T15:56:03.773Z,34.64
2018-07-03T15:58:32.779Z,34.44
2018-07-03T16:01:03.345Z,34.65
2018-07-03T16:04:08.322Z,34.21
2018-07-03T16:06:53.114Z,34.17
2018-07-03T16:09:22.152Z,33.49
2018-07-03T16:11:51.783Z,33.76
2018-07-03T16:14:21.303Z,33.81
2018-07-03T16:16:50.038Z,33.77
2018-07-03T16:19:24.821Z,33.33
2018-07-03T16:21:53.450Z,33.57
2018-07-03T16:24:24.708Z,33.76
2018-07-03T16:26:53.754Z,33.53
2018-07-03T16:29:22.363Z,33.59
2018-07-03T16:31:52.751Z,33.36
2018-07-03T16:34:21.527Z,33.19
2018-07-03T16:36:54.536Z,33.05
2018-07-03T16:39:23.347Z,33.05
2018-07-03T16:41:52.196Z,32.96
2018-07-03T16:44:22.443Z,32.71
2018-07-03T16:46:51.229Z,32.75
2018-07-03T16:49:19.879Z,32.69
2018-07-03T16:51:49.267Z,32.51
2018-07-03T16:54:18.999Z,32.61
2018-07-03T16:56:48.394Z,32.41
2018-07-03T16:59:17.379Z,32.55
2018-07-03T17:01:46.728Z,32.65
2018-07-03T17:04:16.311Z,32.59
2018-07-03T17:06:46.147Z,32.31
2018-07-03T17:09:15.106Z,32.44
2018-07-03T17:11:43.864Z,32.14
2018-07-03T17:14:12.563Z,32.20
2018-07-03T17:16:41.791Z,31.89
2018-07-03T17:19:15.699Z,32.14
2018-07-03T17:21:44.613Z,32.04
2018-07-03T17:24:13.331Z,31.99
2018-07-03T17:26:42.010Z,31.75
2018-07-03T17:29:11.074Z,31.81
2018-07-03T17:31:43.791Z,31.79
2018-07-03T17:34:12.522Z,31.81
2018-07-03T17:36:41.215Z,31.80
2018-07-03T17:39:12.344Z,31.72
2018-07-03T17:41:52.125Z,31.66
2018-07-03T17:45:34.434Z,31.52
2018-07-03T17:48:06.178Z,31.42
2018-07-03T17:50:35.384Z,31.53
2018-07-03T17:53:04.336Z,31.53
2018-07-03T17:55:33.729Z,31.53
2018-07-03T17:58:02.359Z,31.59
2018-07-03T18:00:31.415Z,31.57
2018-07-03T18:03:00.382Z,31.47
2018-07-03T18:05:30.274Z,31.40
2018-07-03T18:07:59.311Z,31.26
2018-07-03T18:10:27.892Z,31.12
2018-07-03T18:12:56.811Z,31.03
2018-07-03T18:15:25.474Z,30.85
2018-07-03T18:17:54.055Z,30.86
2018-07-03T18:20:22.862Z,30.74
2018-07-03T18:22:51.427Z,30.43
2018-07-03T18:25:20.785Z,30.30
2018-07-03T18:27:49.563Z,30.26
2018-07-03T18:30:18.139Z,30.14
2018-07-03T18:32:47.641Z,30.05
2018-07-03T18:35:17.174Z,29.93
2018-07-03T18:37:46.552Z,29.79
2018-07-03T18:40:15.267Z,29.76
2018-07-03T18:42:43.925Z,29.74
2018-07-03T18:45:12.708Z,29.69
2018-07-03T18:47:41.445Z,29.57
2018-07-03T18:50:10.488Z,29.46
2018-07-03T18:52:39.055Z,29.41
2018-07-03T18:55:07.824Z,29.28
2018-07-03T18:57:36.636Z,29.16
2018-07-03T19:00:05.961Z,29.08
2018-07-03T19:02:34.491Z,29.03
2018-07-03T19:05:03.511Z,28.85
2018-07-03T19:07:32.074Z,28.76
2018-07-03T19:10:00.748Z,28.63
2018-07-03T19:12:29.703Z,28.62
2018-07-03T19:14:58.335Z,28.47
2018-07-03T19:17:27.111Z,28.45
2018-07-03T19:19:56.036Z,28.36
2018-07-03T19:22:24.712Z,28.25
2018-07-03T19:24:53.278Z,28.15
2018-07-03T19:27:22.007Z,28.02
2018-07-03T19:29:50.658Z,27.98
2018-07-03T19:32:19.526Z,28.02
2018-07-03T19:34:48.259Z,27.79
2018-07-03T19:37:16.993Z,27.68
2018-07-03T19:39:45.606Z,27.67
2018-07-03T19:42:14.194Z,27.60
2018-07-03T19:44:42.843Z,27.55
2018-07-03T19:47:11.541Z,27.47
2018-07-03T19:49:40.610Z,27.43
2018-07-03T19:52:09.224Z,27.38
2018-07-03T19:54:37.963Z,27.26
2018-07-03T19:57:06.835Z,27.20
2018-07-03T19:59:35.487Z,27.11
2018-07-03T20:02:04.215Z,26.99
2018-07-03T20:04:32.993Z,26.91
2018-07-03T20:07:02.067Z,26.91
2018-07-03T20:09:30.832Z,26.52
2018-07-03T20:11:59.950Z,26.32
2018-07-03T20:14:28.528Z,26.01
2018-07-03T20:16:57.202Z,25.92
2018-07-03T20:19:25.936Z,25.69
2018-07-03T20:21:54.818Z,25.52
2018-07-03T20:24:23.681Z,25.45
2018-07-03T20:26:52.608Z,25.65
2018-07-03T20:29:21.142Z,25.63
2018-07-03T20:31:49.999Z,25.53
2018-07-03T20:34:18.912Z,25.53
2018-07-03T20:36:47.623Z,25.51
2018-07-03T20:39:16.386Z,25.50
2018-07-03T20:41:45.335Z,25.49
2018-07-03T20:44:14.570Z,25.39
2018-07-03T20:46:43.267Z,25.45
2018-07-03T20:49:12.313Z,25.43
2018-07-03T20:51:40.962Z,25.45
2018-07-03T20:54:09.608Z,25.35
2018-07-03T20:56:38.278Z,25.41
2018-07-03T20:59:06.920Z,25.40
2018-07-03T21:01:35.623Z,25.47
2018-07-03T21:04:05.036Z,25.38
2018-07-03T21:06:33.683Z,25.27
2018-07-03T21:09:02.369Z,25.32
2018-07-03T21:11:31.350Z,25.27
2018-07-03T21:14:00.233Z,25.31
2018-07-03T21:16:28.828Z,25.23
2018-07-03T21:18:58.076Z,25.24
2018-07-03T21:21:26.827Z,25.23
2018-07-03T21:23:55.407Z,25.18
2018-07-03T21:26:24.256Z,25.11
2018-07-03T21:28:52.943Z,25.14
2018-07-03T21:31:21.662Z,25.14
2018-07-03T21:33:50.471Z,25.11
2018-07-03T21:36:19.140Z,25.08
2018-07-03T21:38:48.051Z,25.04
2018-07-03T21:41:16.750Z,25.01
2018-07-03T21:43:45.506Z,24.96
2018-07-03T21:46:14.095Z,24.94
2018-07-03T21:48:42.906Z,24.89
2018-07-03T21:51:11.792Z,24.76
2018-07-03T21:53:40.375Z,24.79
2018-07-03T21:56:09.790Z,24.69
2018-07-03T21:58:38.542Z,24.62
2018-07-03T22:01:07.133Z,24.67
2018-07-03T22:03:36.012Z,24.55
2018-07-03T22:06:06.611Z,24.46
2018-07-03T22:08:36.337Z,24.39
2018-07-03T22:11:05.199Z,24.37
2018-07-03T22:13:33.736Z,24.42
2018-07-03T22:16:02.867Z,24.20
2018-07-03T22:18:31.714Z,24.18
2018-07-03T22:21:00.388Z,24.01
2018-07-03T22:23:28.945Z,23.97
2018-07-03T22:25:57.561Z,23.87
2018-07-03T22:28:26.162Z,23.94
2018-07-03T22:30:54.851Z,23.87
2018-07-03T22:33:23.512Z,23.77
2018-07-03T22:35:52.231Z,23.76
2018-07-03T22:38:20.834Z,23.59
2018-07-03T22:40:50.237Z,23.50
2018-07-03T22:43:18.919Z,23.49
2018-07-03T22:45:47.647Z,23.51
2018-07-03T22:48:16.415Z,23.35
2018-07-03T22:50:49.070Z,23.27
2018-07-03T22:53:18.018Z,23.13
2018-07-03T22:55:46.710Z,23.12
2018-07-03T22:58:15.544Z,23.12
2018-07-03T23:00:44.358Z,22.91
2018-07-03T23:03:13.077Z,23.01
2018-07-03T23:05:41.694Z,22.57
2018-07-03T23:08:10.348Z,22.72
2018-07-03T23:10:39.473Z,22.54
2018-07-03T23:13:08.398Z,22.61
2018-07-03T23:15:37.180Z,22.71
2018-07-03T23:18:06.110Z,22.76
2018-07-03T23:20:36.091Z,22.89
2018-07-03T23:23:06.505Z,23.04
2018-07-03T23:25:35.236Z,22.74
2018-07-03T23:28:03.947Z,22.77
2018-07-03T23:30:32.507Z,22.68
2018-07-03T23:33:01.557Z,22.84
2018-07-03T23:35:31.097Z,22.86
2018-07-03T23:40:32.238Z,22.89
2018-07-03T23:43:01.594Z,22.91
2018-07-03T23:45:40.963Z,22.62
2018-07-03T23:48:20.799Z,22.82
2018-07-03T23:51:00.849Z,22.99
2018-07-03T23:53:40.783Z,22.92
2018-07-03T23:56:20.651Z,23.17
2018-07-03T23:59:00.433Z,23.19
